sensor_id;sensor_type;location;lat;lon;timestamp;P1;durP1;ratioP1;P2;durP2;ratioP2
55776;SDS011;54079;44.540;18.784;2024-01-27T00:01:50;5.78;;;3.75;;
55776;SDS011;54079;44.540;18.784;2024-01-27T00:04:16;6.18;;;3.33;;
55776;SDS011;54079;44.540;18.784;2024-01-27T00:06:42;6.82;;;3.33;;
55776;SDS011;54079;44.540;18.784;2024-01-27T00:09:08;3.58;;;2.15;;
55776;SDS011;54079;44.540;18.784;2024-01-27T00:11:34;8.50;;;4.30;;
55776;SDS011;54079;44.540;18.784;2024-01-27T00:14:00;4.97;;;2.45;;
55776;SDS011;54079;44.540;18.784;2024-01-27T00:16:26;3.90;;;2.53;;
55776;SDS011;54079;44.540;18.784;2024-01-27T00:18:52;5.30;;;3.08;;
55776;SDS011;54079;44.540;18.784;2024-01-27T00:21:18;7.50;;;3.50;;
55776;SDS011;54079;44.540;18.784;2024-01-27T00:23:44;8.85;;;4.72;;
55776;SDS011;54079;44.540;18.784;2024-01-27T00:26:10;10.20;;;6.38;;
55776;SDS011;54079;44.540;18.784;2024-01-27T00:28:36;9.48;;;6.18;;
55776;SDS011;54079;44.540;18.784;2024-01-27T00:31:02;8.38;;;4.53;;
55776;SDS011;54079;44.540;18.784;2024-01-27T00:33:28;6.43;;;3.53;;
55776;SDS011;54079;44.540;18.784;2024-01-27T00:35:54;9.43;;;4.50;;
55776;SDS011;54079;44.540;18.784;2024-01-27T00:38:20;5.82;;;2.95;;
55776;SDS011;54079;44.540;18.784;2024-01-27T00:40:46;6.03;;;3.95;;
55776;SDS011;54079;44.540;18.784;2024-01-27T00:43:12;5.35;;;3.00;;
55776;SDS011;54079;44.540;18.784;2024-01-27T00:45:38;7.05;;;4.20;;
55776;SDS011;54079;44.540;18.784;2024-01-27T00:48:04;5.13;;;2.38;;
55776;SDS011;54079;44.540;18.784;2024-01-27T00:50:30;4.35;;;2.40;;
55776;SDS011;54079;44.540;18.784;2024-01-27T00:52:56;5.90;;;4.07;;
55776;SDS011;54079;44.540;18.784;2024-01-27T00:55:22;6.43;;;3.60;;
55776;SDS011;54079;44.540;18.784;2024-01-27T00:57:48;5.13;;;3.10;;
55776;SDS011;54079;44.540;18.784;2024-01-27T01:00:14;4.95;;;2.47;;
55776;SDS011;54079;44.540;18.784;2024-01-27T01:02:40;6.03;;;2.35;;
55776;SDS011;54079;44.540;18.784;2024-01-27T01:05:06;4.72;;;2.55;;
55776;SDS011;54079;44.540;18.784;2024-01-27T01:07:33;3.97;;;2.45;;
55776;SDS011;54079;44.540;18.784;2024-01-27T01:09:59;5.60;;;4.05;;
55776;SDS011;54079;44.540;18.784;2024-01-27T01:12:25;10.73;;;5.75;;
55776;SDS011;54079;44.540;18.784;2024-01-27T01:14:51;7.18;;;3.85;;
55776;SDS011;54079;44.540;18.784;2024-01-27T01:17:17;9.02;;;5.03;;
55776;SDS011;54079;44.540;18.784;2024-01-27T01:19:43;7.70;;;4.65;;
55776;SDS011;54079;44.540;18.784;2024-01-27T01:22:10;7.13;;;3.00;;
55776;SDS011;54079;44.540;18.784;2024-01-27T01:24:36;6.20;;;3.58;;
55776;SDS011;54079;44.540;18.784;2024-01-27T01:27:02;8.75;;;4.90;;
55776;SDS011;54079;44.540;18.784;2024-01-27T01:29:29;6.10;;;3.58;;
55776;SDS011;54079;44.540;18.784;2024-01-27T01:31:54;3.60;;;1.48;;
55776;SDS011;54079;44.540;18.784;2024-01-27T01:34:20;2.05;;;1.35;;
55776;SDS011;54079;44.540;18.784;2024-01-27T01:36:46;2.15;;;1.13;;
55776;SDS011;54079;44.540;18.784;2024-01-27T01:39:13;3.67;;;1.58;;
55776;SDS011;54079;44.540;18.784;2024-01-27T01:41:40;3.88;;;1.75;;
55776;SDS011;54079;44.540;18.784;2024-01-27T01:44:06;5.03;;;2.50;;
55776;SDS011;54079;44.540;18.784;2024-01-27T01:46:33;4.43;;;2.08;;
55776;SDS011;54079;44.540;18.784;2024-01-27T01:48:59;5.97;;;2.22;;
55776;SDS011;54079;44.540;18.784;2024-01-27T01:51:26;2.90;;;1.77;;
55776;SDS011;54079;44.540;18.784;2024-01-27T01:53:57;3.13;;;1.80;;
55776;SDS011;54079;44.540;18.784;2024-01-27T01:56:24;3.85;;;2.42;;
55776;SDS011;54079;44.540;18.784;2024-01-27T01:58:50;4.75;;;2.42;;
55776;SDS011;54079;44.540;18.784;2024-01-27T02:01:17;3.67;;;1.73;;
55776;SDS011;54079;44.540;18.784;2024-01-27T02:03:55;5.28;;;2.45;;
55776;SDS011;54079;44.540;18.784;2024-01-27T02:06:22;3.88;;;2.25;;
55776;SDS011;54079;44.540;18.784;2024-01-27T02:08:48;5.80;;;3.83;;
55776;SDS011;54079;44.540;18.784;2024-01-27T02:11:15;5.80;;;3.40;;
55776;SDS011;54079;44.540;18.784;2024-01-27T02:13:41;6.80;;;3.58;;
55776;SDS011;54079;44.540;18.784;2024-01-27T02:16:07;6.68;;;3.30;;
55776;SDS011;54079;44.540;18.784;2024-01-27T02:18:33;14.70;;;6.47;;
55776;SDS011;54079;44.540;18.784;2024-01-27T02:20:59;9.73;;;6.22;;
55776;SDS011;54079;44.540;18.784;2024-01-27T02:23:25;17.45;;;7.28;;
55776;SDS011;54079;44.540;18.784;2024-01-27T02:25:51;12.75;;;8.02;;
55776;SDS011;54079;44.540;18.784;2024-01-27T02:28:17;13.70;;;8.05;;
55776;SDS011;54079;44.540;18.784;2024-01-27T02:30:43;15.95;;;8.13;;
55776;SDS011;54079;44.540;18.784;2024-01-27T02:33:09;14.82;;;8.38;;
55776;SDS011;54079;44.540;18.784;2024-01-27T02:35:35;16.20;;;7.65;;
55776;SDS011;54079;44.540;18.784;2024-01-27T02:38:01;15.55;;;8.93;;
55776;SDS011;54079;44.540;18.784;2024-01-27T02:40:27;11.20;;;7.07;;
55776;SDS011;54079;44.540;18.784;2024-01-27T02:42:53;17.92;;;9.63;;
55776;SDS011;54079;44.540;18.784;2024-01-27T02:45:19;15.63;;;6.45;;
55776;SDS011;54079;44.540;18.784;2024-01-27T02:47:45;11.25;;;4.63;;
55776;SDS011;54079;44.540;18.784;2024-01-27T02:50:11;10.93;;;4.65;;
55776;SDS011;54079;44.540;18.784;2024-01-27T02:52:37;8.43;;;3.90;;
55776;SDS011;54079;44.540;18.784;2024-01-27T02:55:03;12.23;;;6.18;;
55776;SDS011;54079;44.540;18.784;2024-01-27T02:57:30;4.93;;;3.10;;
55776;SDS011;54079;44.540;18.784;2024-01-27T02:59:56;6.70;;;3.08;;
55776;SDS011;54079;44.540;18.784;2024-01-27T03:02:22;5.57;;;1.98;;
55776;SDS011;54079;44.540;18.784;2024-01-27T03:04:48;7.82;;;4.85;;
55776;SDS011;54079;44.540;18.784;2024-01-27T03:07:14;4.40;;;2.80;;
55776;SDS011;54079;44.540;18.784;2024-01-27T03:09:40;3.10;;;1.77;;
55776;SDS011;54079;44.540;18.784;2024-01-27T03:12:06;7.18;;;4.03;;
55776;SDS011;54079;44.540;18.784;2024-01-27T03:14:32;2.05;;;1.38;;
55776;SDS011;54079;44.540;18.784;2024-01-27T03:16:58;2.17;;;1.35;;
55776;SDS011;54079;44.540;18.784;2024-01-27T03:19:24;6.30;;;3.17;;
55776;SDS011;54079;44.540;18.784;2024-01-27T03:21:50;9.23;;;4.22;;
55776;SDS011;54079;44.540;18.784;2024-01-27T03:24:16;8.45;;;4.30;;
55776;SDS011;54079;44.540;18.784;2024-01-27T03:26:42;4.55;;;1.33;;
55776;SDS011;54079;44.540;18.784;2024-01-27T03:29:08;4.07;;;2.67;;
55776;SDS011;54079;44.540;18.784;2024-01-27T03:31:34;2.60;;;1.13;;
55776;SDS011;54079;44.540;18.784;2024-01-27T03:34:01;5.20;;;2.60;;
55776;SDS011;54079;44.540;18.784;2024-01-27T03:36:27;6.22;;;3.50;;
55776;SDS011;54079;44.540;18.784;2024-01-27T03:38:55;5.88;;;2.30;;
55776;SDS011;54079;44.540;18.784;2024-01-27T03:41:22;7.38;;;5.47;;
55776;SDS011;54079;44.540;18.784;2024-01-27T03:43:48;12.48;;;6.05;;
55776;SDS011;54079;44.540;18.784;2024-01-27T03:46:14;7.82;;;3.88;;
55776;SDS011;54079;44.540;18.784;2024-01-27T03:48:40;5.45;;;3.40;;
55776;SDS011;54079;44.540;18.784;2024-01-27T03:51:06;7.47;;;2.67;;
55776;SDS011;54079;44.540;18.784;2024-01-27T03:53:32;7.63;;;3.10;;
55776;SDS011;54079;44.540;18.784;2024-01-27T03:55:58;9.05;;;4.38;;
55776;SDS011;54079;44.540;18.784;2024-01-27T03:58:27;4.70;;;2.83;;
55776;SDS011;54079;44.540;18.784;2024-01-27T04:00:53;6.43;;;3.97;;
55776;SDS011;54079;44.540;18.784;2024-01-27T04:03:19;7.38;;;3.97;;
55776;SDS011;54079;44.540;18.784;2024-01-27T04:05:45;4.57;;;2.50;;
55776;SDS011;54079;44.540;18.784;2024-01-27T04:08:11;6.70;;;3.65;;
55776;SDS011;54079;44.540;18.784;2024-01-27T04:10:37;6.82;;;3.05;;
55776;SDS011;54079;44.540;18.784;2024-01-27T04:13:03;2.60;;;1.70;;
55776;SDS011;54079;44.540;18.784;2024-01-27T04:15:29;3.05;;;1.73;;
55776;SDS011;54079;44.540;18.784;2024-01-27T04:17:58;4.75;;;1.58;;
55776;SDS011;54079;44.540;18.784;2024-01-27T04:20:23;4.00;;;2.33;;
55776;SDS011;54079;44.540;18.784;2024-01-27T04:22:49;6.55;;;2.88;;
55776;SDS011;54079;44.540;18.784;2024-01-27T04:25:15;6.60;;;2.70;;
55776;SDS011;54079;44.540;18.784;2024-01-27T04:27:41;3.72;;;1.35;;
55776;SDS011;54079;44.540;18.784;2024-01-27T04:30:07;7.97;;;4.25;;
55776;SDS011;54079;44.540;18.784;2024-01-27T04:32:35;9.57;;;4.25;;
55776;SDS011;54079;44.540;18.784;2024-01-27T04:35:01;6.75;;;3.38;;
55776;SDS011;54079;44.540;18.784;2024-01-27T04:37:28;4.45;;;2.50;;
55776;SDS011;54079;44.540;18.784;2024-01-27T04:39:54;5.15;;;2.78;;
55776;SDS011;54079;44.540;18.784;2024-01-27T04:42:20;5.85;;;3.60;;
55776;SDS011;54079;44.540;18.784;2024-01-27T04:44:46;4.43;;;2.72;;
55776;SDS011;54079;44.540;18.784;2024-01-27T04:47:12;4.57;;;2.72;;
55776;SDS011;54079;44.540;18.784;2024-01-27T04:49:38;4.70;;;3.22;;
55776;SDS011;54079;44.540;18.784;2024-01-27T04:52:04;4.20;;;2.75;;
55776;SDS011;54079;44.540;18.784;2024-01-27T04:54:31;3.20;;;2.35;;
55776;SDS011;54079;44.540;18.784;2024-01-27T04:56:56;3.78;;;2.13;;
55776;SDS011;54079;44.540;18.784;2024-01-27T04:59:22;8.80;;;4.05;;
55776;SDS011;54079;44.540;18.784;2024-01-27T05:01:50;4.32;;;2.30;;
55776;SDS011;54079;44.540;18.784;2024-01-27T05:04:16;5.07;;;2.80;;
55776;SDS011;54079;44.540;18.784;2024-01-27T05:06:45;6.32;;;3.15;;
55776;SDS011;54079;44.540;18.784;2024-01-27T05:09:11;4.93;;;2.58;;
55776;SDS011;54079;44.540;18.784;2024-01-27T05:11:37;8.23;;;4.03;;
55776;SDS011;54079;44.540;18.784;2024-01-27T05:14:03;10.05;;;5.95;;
55776;SDS011;54079;44.540;18.784;2024-01-27T05:16:29;14.40;;;8.05;;
55776;SDS011;54079;44.540;18.784;2024-01-27T05:18:57;8.20;;;4.60;;
55776;SDS011;54079;44.540;18.784;2024-01-27T05:21:23;7.68;;;4.72;;
55776;SDS011;54079;44.540;18.784;2024-01-27T05:23:49;6.80;;;3.47;;
55776;SDS011;54079;44.540;18.784;2024-01-27T05:26:15;5.15;;;2.53;;
55776;SDS011;54079;44.540;18.784;2024-01-27T05:28:41;3.28;;;2.33;;
55776;SDS011;54079;44.540;18.784;2024-01-27T05:31:07;4.93;;;2.65;;
55776;SDS011;54079;44.540;18.784;2024-01-27T05:33:36;3.72;;;2.55;;
55776;SDS011;54079;44.540;18.784;2024-01-27T05:36:04;7.18;;;3.30;;
55776;SDS011;54079;44.540;18.784;2024-01-27T05:38:31;7.47;;;3.17;;
55776;SDS011;54079;44.540;18.784;2024-01-27T05:40:58;7.05;;;3.70;;
55776;SDS011;54079;44.540;18.784;2024-01-27T05:43:26;7.50;;;3.70;;
55776;SDS011;54079;44.540;18.784;2024-01-27T05:45:53;8.70;;;5.28;;
55776;SDS011;54079;44.540;18.784;2024-01-27T05:48:19;7.70;;;3.08;;
55776;SDS011;54079;44.540;18.784;2024-01-27T05:50:54;6.65;;;2.53;;
55776;SDS011;54079;44.540;18.784;2024-01-27T05:53:21;7.15;;;3.13;;
55776;SDS011;54079;44.540;18.784;2024-01-27T05:55:47;8.15;;;4.00;;
55776;SDS011;54079;44.540;18.784;2024-01-27T05:58:13;9.98;;;6.13;;
55776;SDS011;54079;44.540;18.784;2024-01-27T06:00:42;4.35;;;3.00;;
55776;SDS011;54079;44.540;18.784;2024-01-27T06:03:09;4.35;;;2.63;;
55776;SDS011;54079;44.540;18.784;2024-01-27T06:05:35;15.35;;;5.93;;
55776;SDS011;54079;44.540;18.784;2024-01-27T06:08:02;8.02;;;3.78;;
55776;SDS011;54079;44.540;18.784;2024-01-27T06:10:28;6.38;;;2.53;;
55776;SDS011;54079;44.540;18.784;2024-01-27T06:12:55;3.63;;;2.22;;
55776;SDS011;54079;44.540;18.784;2024-01-27T06:15:21;8.95;;;3.80;;
55776;SDS011;54079;44.540;18.784;2024-01-27T06:17:47;14.15;;;8.57;;
55776;SDS011;54079;44.540;18.784;2024-01-27T06:20:13;14.30;;;7.20;;
55776;SDS011;54079;44.540;18.784;2024-01-27T06:22:42;8.93;;;4.70;;
55776;SDS011;54079;44.540;18.784;2024-01-27T06:25:08;8.98;;;4.72;;
55776;SDS011;54079;44.540;18.784;2024-01-27T06:27:35;4.57;;;2.58;;
55776;SDS011;54079;44.540;18.784;2024-01-27T06:30:03;6.97;;;4.35;;
55776;SDS011;54079;44.540;18.784;2024-01-27T06:32:29;16.85;;;9.90;;
55776;SDS011;54079;44.540;18.784;2024-01-27T06:34:55;15.93;;;7.22;;
55776;SDS011;54079;44.540;18.784;2024-01-27T06:37:21;10.45;;;6.20;;
55776;SDS011;54079;44.540;18.784;2024-01-27T06:39:47;21.38;;;11.48;;
55776;SDS011;54079;44.540;18.784;2024-01-27T06:42:13;11.98;;;6.40;;
55776;SDS011;54079;44.540;18.784;2024-01-27T06:44:39;7.72;;;3.90;;
55776;SDS011;54079;44.540;18.784;2024-01-27T06:47:05;12.05;;;6.00;;
55776;SDS011;54079;44.540;18.784;2024-01-27T06:49:31;3.35;;;2.00;;
55776;SDS011;54079;44.540;18.784;2024-01-27T06:51:58;9.20;;;4.90;;
55776;SDS011;54079;44.540;18.784;2024-01-27T06:54:25;5.45;;;3.15;;
55776;SDS011;54079;44.540;18.784;2024-01-27T06:56:51;11.55;;;6.68;;
55776;SDS011;54079;44.540;18.784;2024-01-27T06:59:17;14.88;;;8.73;;
55776;SDS011;54079;44.540;18.784;2024-01-27T07:01:46;11.07;;;5.53;;
55776;SDS011;54079;44.540;18.784;2024-01-27T07:04:16;19.85;;;9.68;;
55776;SDS011;54079;44.540;18.784;2024-01-27T07:06:43;23.73;;;12.77;;
55776;SDS011;54079;44.540;18.784;2024-01-27T07:09:10;10.20;;;5.78;;
55776;SDS011;54079;44.540;18.784;2024-01-27T07:11:36;12.50;;;6.78;;
55776;SDS011;54079;44.540;18.784;2024-01-27T07:14:06;7.90;;;4.30;;
55776;SDS011;54079;44.540;18.784;2024-01-27T07:16:32;5.07;;;2.75;;
55776;SDS011;54079;44.540;18.784;2024-01-27T07:18:59;5.53;;;2.40;;
55776;SDS011;54079;44.540;18.784;2024-01-27T07:21:25;7.15;;;4.05;;
55776;SDS011;54079;44.540;18.784;2024-01-27T07:23:52;6.15;;;3.42;;
55776;SDS011;54079;44.540;18.784;2024-01-27T07:26:19;8.38;;;4.55;;
55776;SDS011;54079;44.540;18.784;2024-01-27T07:28:45;11.70;;;5.47;;
55776;SDS011;54079;44.540;18.784;2024-01-27T07:31:11;12.20;;;6.28;;
55776;SDS011;54079;44.540;18.784;2024-01-27T07:33:38;3.58;;;1.98;;
55776;SDS011;54079;44.540;18.784;2024-01-27T07:36:04;11.30;;;6.25;;
55776;SDS011;54079;44.540;18.784;2024-01-27T07:38:30;4.25;;;2.50;;
55776;SDS011;54079;44.540;18.784;2024-01-27T07:40:56;9.55;;;7.20;;
55776;SDS011;54079;44.540;18.784;2024-01-27T07:43:23;6.78;;;6.28;;
55776;SDS011;54079;44.540;18.784;2024-01-27T07:45:50;7.82;;;4.80;;
55776;SDS011;54079;44.540;18.784;2024-01-27T07:48:17;13.88;;;7.55;;
55776;SDS011;54079;44.540;18.784;2024-01-27T07:50:43;4.00;;;2.47;;
55776;SDS011;54079;44.540;18.784;2024-01-27T07:53:13;16.90;;;15.60;;
55776;SDS011;54079;44.540;18.784;2024-01-27T07:55:40;16.13;;;14.68;;
55776;SDS011;54079;44.540;18.784;2024-01-27T07:58:06;19.25;;;17.73;;
55776;SDS011;54079;44.540;18.784;2024-01-27T08:00:32;18.60;;;17.40;;
55776;SDS011;54079;44.540;18.784;2024-01-27T08:02:58;17.23;;;16.15;;
55776;SDS011;54079;44.540;18.784;2024-01-27T08:05:24;40.13;;;37.75;;
55776;SDS011;54079;44.540;18.784;2024-01-27T08:07:50;23.30;;;21.88;;
55776;SDS011;54079;44.540;18.784;2024-01-27T08:10:16;19.13;;;17.83;;
55776;SDS011;54079;44.540;18.784;2024-01-27T08:12:42;28.85;;;27.33;;
55776;SDS011;54079;44.540;18.784;2024-01-27T08:15:09;23.17;;;21.88;;
55776;SDS011;54079;44.540;18.784;2024-01-27T08:17:35;43.03;;;40.90;;
55776;SDS011;54079;44.540;18.784;2024-01-27T08:20:01;25.70;;;24.20;;
55776;SDS011;54079;44.540;18.784;2024-01-27T08:22:27;29.45;;;27.52;;
55776;SDS011;54079;44.540;18.784;2024-01-27T08:24:54;1999.90;;;999.90;;
55776;SDS011;54079;44.540;18.784;2024-01-27T08:27:20;1999.90;;;999.90;;
55776;SDS011;54079;44.540;18.784;2024-01-27T08:29:46;1999.90;;;999.90;;
55776;SDS011;54079;44.540;18.784;2024-01-27T08:32:12;1999.90;;;999.90;;
55776;SDS011;54079;44.540;18.784;2024-01-27T08:34:38;1999.90;;;999.90;;
55776;SDS011;54079;44.540;18.784;2024-01-27T08:37:13;1999.90;;;999.90;;
55776;SDS011;54079;44.540;18.784;2024-01-27T08:39:43;1999.90;;;999.90;;
55776;SDS011;54079;44.540;18.784;2024-01-27T08:42:10;1999.90;;;999.90;;
55776;SDS011;54079;44.540;18.784;2024-01-27T08:44:36;1999.90;;;999.90;;
55776;SDS011;54079;44.540;18.784;2024-01-27T08:47:05;1999.90;;;999.90;;
55776;SDS011;54079;44.540;18.784;2024-01-27T08:49:31;1999.90;;;999.90;;
55776;SDS011;54079;44.540;18.784;2024-01-27T08:51:57;1999.90;;;999.90;;
55776;SDS011;54079;44.540;18.784;2024-01-27T08:54:23;26.42;;;24.92;;
55776;SDS011;54079;44.540;18.784;2024-01-27T08:56:50;8.68;;;8.18;;
55776;SDS011;54079;44.540;18.784;2024-01-27T08:59:15;12.07;;;11.18;;
55776;SDS011;54079;44.540;18.784;2024-01-27T09:01:41;7.40;;;6.65;;
55776;SDS011;54079;44.540;18.784;2024-01-27T09:04:08;7.10;;;5.63;;
55776;SDS011;54079;44.540;18.784;2024-01-27T09:06:34;4.53;;;3.13;;
55776;SDS011;54079;44.540;18.784;2024-01-27T09:09:00;4.35;;;3.10;;
55776;SDS011;54079;44.540;18.784;2024-01-27T09:11:26;10.13;;;8.15;;
55776;SDS011;54079;44.540;18.784;2024-01-27T09:13:55;9.52;;;6.40;;
55776;SDS011;54079;44.540;18.784;2024-01-27T09:16:22;6.45;;;3.70;;
55776;SDS011;54079;44.540;18.784;2024-01-27T09:18:48;2.40;;;1.73;;
55776;SDS011;54079;44.540;18.784;2024-01-27T09:21:17;6.80;;;4.88;;
55776;SDS011;54079;44.540;18.784;2024-01-27T09:23:47;3.13;;;1.48;;
55776;SDS011;54079;44.540;18.784;2024-01-27T09:26:13;3.20;;;2.30;;
55776;SDS011;54079;44.540;18.784;2024-01-27T09:28:40;3.75;;;2.90;;
55776;SDS011;54079;44.540;18.784;2024-01-27T09:31:10;7.75;;;5.25;;
55776;SDS011;54079;44.540;18.784;2024-01-27T09:33:36;3.50;;;2.42;;
55776;SDS011;54079;44.540;18.784;2024-01-27T09:36:03;6.53;;;4.15;;
55776;SDS011;54079;44.540;18.784;2024-01-27T09:38:30;7.57;;;5.00;;
55776;SDS011;54079;44.540;18.784;2024-01-27T09:40:56;5.65;;;3.67;;
55776;SDS011;54079;44.540;18.784;2024-01-27T09:43:22;4.57;;;2.83;;
55776;SDS011;54079;44.540;18.784;2024-01-27T09:45:51;5.30;;;3.63;;
55776;SDS011;54079;44.540;18.784;2024-01-27T09:48:17;0.38;;;0.17;;
55776;SDS011;54079;44.540;18.784;2024-01-27T09:50:44;1.10;;;0.40;;
55776;SDS011;54079;44.540;18.784;2024-01-27T09:53:13;7.72;;;4.07;;
55776;SDS011;54079;44.540;18.784;2024-01-27T09:55:39;5.53;;;3.60;;
55776;SDS011;54079;44.540;18.784;2024-01-27T09:58:05;8.48;;;5.40;;
55776;SDS011;54079;44.540;18.784;2024-01-27T10:00:33;5.97;;;4.15;;
55776;SDS011;54079;44.540;18.784;2024-01-27T10:03:04;8.73;;;5.30;;
55776;SDS011;54079;44.540;18.784;2024-01-27T10:05:32;6.95;;;4.22;;
55776;SDS011;54079;44.540;18.784;2024-01-27T10:07:58;0.88;;;0.38;;
55776;SDS011;54079;44.540;18.784;2024-01-27T10:10:24;7.57;;;4.80;;
55776;SDS011;54079;44.540;18.784;2024-01-27T10:12:51;8.00;;;5.10;;
55776;SDS011;54079;44.540;18.784;2024-01-27T10:15:21;12.70;;;8.35;;
55776;SDS011;54079;44.540;18.784;2024-01-27T10:17:48;2.05;;;1.00;;
55776;SDS011;54079;44.540;18.784;2024-01-27T10:20:14;7.80;;;4.63;;
55776;SDS011;54079;44.540;18.784;2024-01-27T10:22:44;7.70;;;4.55;;
55776;SDS011;54079;44.540;18.784;2024-01-27T10:25:11;6.65;;;4.53;;
55776;SDS011;54079;44.540;18.784;2024-01-27T10:27:37;8.20;;;4.85;;
55776;SDS011;54079;44.540;18.784;2024-01-27T10:30:04;6.07;;;3.33;;
55776;SDS011;54079;44.540;18.784;2024-01-27T10:32:34;9.73;;;5.55;;
55776;SDS011;54079;44.540;18.784;2024-01-27T10:35:01;6.25;;;2.30;;
55776;SDS011;54079;44.540;18.784;2024-01-27T10:37:28;6.50;;;3.28;;
55776;SDS011;54079;44.540;18.784;2024-01-27T10:40:03;13.95;;;7.93;;
55776;SDS011;54079;44.540;18.784;2024-01-27T10:42:32;7.30;;;3.63;;
55776;SDS011;54079;44.540;18.784;2024-01-27T10:45:00;4.97;;;2.58;;
55776;SDS011;54079;44.540;18.784;2024-01-27T10:47:27;2.58;;;1.13;;
55776;SDS011;54079;44.540;18.784;2024-01-27T10:49:58;8.52;;;4.60;;
55776;SDS011;54079;44.540;18.784;2024-01-27T10:52:25;7.43;;;4.55;;
55776;SDS011;54079;44.540;18.784;2024-01-27T10:55:03;7.82;;;5.07;;
55776;SDS011;54079;44.540;18.784;2024-01-27T10:57:33;18.77;;;10.68;;
55776;SDS011;54079;44.540;18.784;2024-01-27T11:00:03;11.32;;;6.88;;
55776;SDS011;54079;44.540;18.784;2024-01-27T11:02:34;16.08;;;9.70;;
55776;SDS011;54079;44.540;18.784;2024-01-27T11:05:03;9.10;;;5.85;;
55776;SDS011;54079;44.540;18.784;2024-01-27T11:07:33;12.35;;;8.15;;
55776;SDS011;54079;44.540;18.784;2024-01-27T11:10:00;8.45;;;5.65;;
55776;SDS011;54079;44.540;18.784;2024-01-27T11:12:26;11.70;;;5.80;;
55776;SDS011;54079;44.540;18.784;2024-01-27T11:14:53;18.80;;;10.93;;
55776;SDS011;54079;44.540;18.784;2024-01-27T11:17:19;9.15;;;6.68;;
55776;SDS011;54079;44.540;18.784;2024-01-27T11:19:45;4.13;;;2.33;;
55776;SDS011;54079;44.540;18.784;2024-01-27T11:22:25;17.52;;;9.98;;
55776;SDS011;54079;44.540;18.784;2024-01-27T11:24:52;14.45;;;8.55;;
55776;SDS011;54079;44.540;18.784;2024-01-27T11:27:39;17.90;;;12.05;;
55776;SDS011;54079;44.540;18.784;2024-01-27T11:30:06;8.35;;;5.22;;
55776;SDS011;54079;44.540;18.784;2024-01-27T11:32:57;13.75;;;6.93;;
55776;SDS011;54079;44.540;18.784;2024-01-27T11:35:26;12.60;;;7.63;;
55776;SDS011;54079;44.540;18.784;2024-01-27T11:37:52;5.50;;;2.92;;
55776;SDS011;54079;44.540;18.784;2024-01-27T11:40:19;12.23;;;7.55;;
55776;SDS011;54079;44.540;18.784;2024-01-27T11:42:58;4.97;;;1.92;;
55776;SDS011;54079;44.540;18.784;2024-01-27T11:45:26;3.53;;;2.50;;
55776;SDS011;54079;44.540;18.784;2024-01-27T11:47:55;10.35;;;6.65;;
55776;SDS011;54079;44.540;18.784;2024-01-27T11:50:22;11.68;;;7.47;;
55776;SDS011;54079;44.540;18.784;2024-01-27T11:52:49;12.77;;;8.63;;
55776;SDS011;54079;44.540;18.784;2024-01-27T11:55:15;21.23;;;13.82;;
55776;SDS011;54079;44.540;18.784;2024-01-27T11:57:41;3.13;;;1.92;;
55776;SDS011;54079;44.540;18.784;2024-01-27T12:00:07;11.38;;;6.50;;
55776;SDS011;54079;44.540;18.784;2024-01-27T12:02:39;16.88;;;9.63;;
55776;SDS011;54079;44.540;18.784;2024-01-27T12:05:06;5.72;;;3.22;;
55776;SDS011;54079;44.540;18.784;2024-01-27T12:07:33;10.55;;;5.88;;
55776;SDS011;54079;44.540;18.784;2024-01-27T12:09:59;14.82;;;9.43;;
55776;SDS011;54079;44.540;18.784;2024-01-27T12:12:25;15.98;;;10.20;;
55776;SDS011;54079;44.540;18.784;2024-01-27T12:14:52;4.22;;;2.60;;
55776;SDS011;54079;44.540;18.784;2024-01-27T12:17:18;9.82;;;5.65;;
55776;SDS011;54079;44.540;18.784;2024-01-27T12:19:48;11.05;;;7.47;;
55776;SDS011;54079;44.540;18.784;2024-01-27T12:22:25;21.73;;;13.73;;
55776;SDS011;54079;44.540;18.784;2024-01-27T12:24:56;10.73;;;6.95;;
55776;SDS011;54079;44.540;18.784;2024-01-27T12:27:35;19.80;;;12.57;;
55776;SDS011;54079;44.540;18.784;2024-01-27T12:30:02;9.48;;;4.28;;
55776;SDS011;54079;44.540;18.784;2024-01-27T12:32:28;18.50;;;10.82;;
55776;SDS011;54079;44.540;18.784;2024-01-27T12:34:54;10.88;;;7.57;;
55776;SDS011;54079;44.540;18.784;2024-01-27T12:37:23;8.27;;;4.63;;
55776;SDS011;54079;44.540;18.784;2024-01-27T12:39:49;6.47;;;3.10;;
55776;SDS011;54079;44.540;18.784;2024-01-27T12:42:16;14.50;;;8.90;;
55776;SDS011;54079;44.540;18.784;2024-01-27T12:44:42;9.02;;;5.30;;
55776;SDS011;54079;44.540;18.784;2024-01-27T12:47:12;15.85;;;9.68;;
55776;SDS011;54079;44.540;18.784;2024-01-27T12:49:39;11.93;;;7.60;;
55776;SDS011;54079;44.540;18.784;2024-01-27T12:52:06;15.73;;;9.07;;
55776;SDS011;54079;44.540;18.784;2024-01-27T12:54:32;7.25;;;4.00;;
55776;SDS011;54079;44.540;18.784;2024-01-27T12:56:58;6.47;;;3.85;;
55776;SDS011;54079;44.540;18.784;2024-01-27T12:59:26;20.48;;;12.10;;
55776;SDS011;54079;44.540;18.784;2024-01-27T13:01:53;11.95;;;7.53;;
55776;SDS011;54079;44.540;18.784;2024-01-27T13:04:19;9.05;;;5.45;;
55776;SDS011;54079;44.540;18.784;2024-01-27T13:06:45;12.40;;;7.47;;
55776;SDS011;54079;44.540;18.784;2024-01-27T13:09:11;9.43;;;4.95;;
55776;SDS011;54079;44.540;18.784;2024-01-27T13:11:38;15.65;;;9.77;;
55776;SDS011;54079;44.540;18.784;2024-01-27T13:14:05;17.58;;;11.50;;
55776;SDS011;54079;44.540;18.784;2024-01-27T13:16:34;15.25;;;9.45;;
55776;SDS011;54079;44.540;18.784;2024-01-27T13:19:00;14.00;;;8.18;;
55776;SDS011;54079;44.540;18.784;2024-01-27T13:21:26;19.70;;;12.57;;
55776;SDS011;54079;44.540;18.784;2024-01-27T13:23:52;12.20;;;7.47;;
55776;SDS011;54079;44.540;18.784;2024-01-27T13:26:18;8.48;;;4.20;;
55776;SDS011;54079;44.540;18.784;2024-01-27T13:28:45;12.75;;;7.32;;
55776;SDS011;54079;44.540;18.784;2024-01-27T13:31:13;14.57;;;8.30;;
55776;SDS011;54079;44.540;18.784;2024-01-27T13:33:39;26.13;;;14.73;;
55776;SDS011;54079;44.540;18.784;2024-01-27T13:36:05;7.15;;;4.63;;
55776;SDS011;54079;44.540;18.784;2024-01-27T13:38:32;16.27;;;10.13;;
55776;SDS011;54079;44.540;18.784;2024-01-27T13:40:59;10.45;;;7.07;;
55776;SDS011;54079;44.540;18.784;2024-01-27T13:43:25;13.90;;;8.15;;
55776;SDS011;54079;44.540;18.784;2024-01-27T13:45:51;17.40;;;9.90;;
55776;SDS011;54079;44.540;18.784;2024-01-27T13:48:17;12.27;;;7.75;;
55776;SDS011;54079;44.540;18.784;2024-01-27T13:50:43;13.93;;;7.70;;
55776;SDS011;54079;44.540;18.784;2024-01-27T13:53:11;9.88;;;5.95;;
55776;SDS011;54079;44.540;18.784;2024-01-27T13:55:37;12.85;;;8.30;;
55776;SDS011;54079;44.540;18.784;2024-01-27T13:58:05;7.10;;;3.60;;
55776;SDS011;54079;44.540;18.784;2024-01-27T14:00:31;13.80;;;8.38;;
55776;SDS011;54079;44.540;18.784;2024-01-27T14:02:59;11.23;;;7.32;;
55776;SDS011;54079;44.540;18.784;2024-01-27T14:05:25;8.45;;;5.05;;
55776;SDS011;54079;44.540;18.784;2024-01-27T14:07:51;9.90;;;6.10;;
55776;SDS011;54079;44.540;18.784;2024-01-27T14:10:17;8.45;;;4.88;;
55776;SDS011;54079;44.540;18.784;2024-01-27T14:12:43;5.97;;;2.90;;
55776;SDS011;54079;44.540;18.784;2024-01-27T14:15:09;5.32;;;2.83;;
55776;SDS011;54079;44.540;18.784;2024-01-27T14:17:35;8.90;;;5.68;;
55776;SDS011;54079;44.540;18.784;2024-01-27T14:20:02;17.25;;;9.52;;
55776;SDS011;54079;44.540;18.784;2024-01-27T14:22:29;14.60;;;7.97;;
55776;SDS011;54079;44.540;18.784;2024-01-27T14:24:55;10.10;;;5.70;;